createdAt,value
2019-03-15T14:42:27.601Z,18.65
2019-03-15T14:44:56.055Z,16.67
2019-03-15T14:47:24.461Z,22.93
2019-03-15T14:49:52.900Z,14.85
2019-03-15T14:52:21.350Z,14.73
2019-03-15T14:54:49.861Z,17.57
2019-03-15T14:57:18.311Z,17.20
2019-03-15T14:59:47.003Z,11.35
2019-03-15T15:02:15.419Z,16.60
2019-03-15T15:04:44.235Z,16.15
2019-03-15T15:07:12.662Z,14.07
2019-03-15T15:09:41.115Z,18.60
2019-03-15T15:12:09.626Z,16.65
2019-03-15T15:14:38.063Z,19.80
2019-03-15T15:17:06.703Z,16.73
2019-03-15T15:19:35.401Z,14.10
2019-03-15T15:22:04.302Z,20.65
2019-03-15T15:24:32.743Z,22.75
2019-03-15T15:27:01.373Z,15.93
2019-03-15T15:29:29.844Z,20.60
2019-03-15T15:31:58.272Z,20.02
2019-03-15T15:34:26.820Z,19.20
2019-03-15T15:36:55.268Z,17.35
2019-03-15T15:39:23.725Z,17.67
2019-03-15T15:41:52.729Z,19.57
2019-03-15T15:44:21.305Z,20.12
2019-03-15T15:46:49.742Z,20.15
2019-03-15T15:49:18.310Z,18.73
2019-03-15T15:51:46.739Z,19.55
2019-03-15T15:54:15.186Z,18.85
2019-03-15T15:56:43.635Z,18.50
2019-03-15T15:59:12.076Z,22.93
2019-03-15T16:01:40.495Z,19.00
2019-03-15T16:04:08.953Z,22.95
2019-03-15T16:06:37.420Z,20.77
2019-03-15T16:09:07.087Z,14.68
2019-03-15T16:11:35.558Z,20.48
2019-03-15T16:14:04.071Z,20.43
2019-03-15T16:16:32.496Z,21.02
2019-03-15T16:19:01.167Z,16.62
2019-03-15T16:21:33.080Z,17.32
2019-03-15T16:24:02.777Z,21.48
2019-03-15T16:26:31.560Z,20.88
2019-03-15T16:29:00.204Z,20.75
2019-03-15T16:31:28.679Z,20.55
2019-03-15T16:33:57.554Z,24.75
2019-03-15T16:36:26.025Z,26.20
2019-03-15T16:38:54.495Z,16.25
2019-03-15T16:41:22.955Z,16.93
2019-03-15T16:43:51.404Z,23.45
2019-03-15T16:46:19.821Z,20.00
2019-03-15T16:48:48.465Z,21.00
2019-03-15T16:51:19.766Z,23.35
2019-03-15T16:53:47.053Z,24.63
2019-03-15T16:56:15.592Z,20.43
2019-03-15T16:58:45.874Z,25.77
2019-03-15T17:01:15.251Z,26.27
2019-03-15T17:03:44.077Z,25.25
2019-03-15T17:06:12.516Z,28.95
2019-03-15T17:08:41.164Z,29.50
2019-03-15T17:11:09.681Z,20.97
2019-03-15T17:13:38.293Z,18.25
2019-03-15T17:16:06.836Z,25.68
2019-03-15T17:18:35.520Z,34.35
2019-03-15T17:21:04.122Z,21.07
2019-03-15T17:23:32.580Z,23.95
2019-03-15T17:26:01.037Z,26.27
2019-03-15T17:28:29.468Z,27.22
2019-03-15T17:31:09.159Z,28.65
2019-03-15T17:33:28.264Z,21.50
2019-03-15T17:35:56.680Z,24.98
2019-03-15T17:38:25.363Z,20.05
2019-03-15T17:40:53.860Z,29.40
2019-03-15T17:43:22.276Z,25.20
2019-03-15T17:45:50.709Z,25.30
2019-03-15T17:48:19.168Z,20.48
2019-03-15T17:50:47.611Z,34.38
2019-03-15T17:53:16.023Z,27.93
2019-03-15T17:55:44.722Z,33.50
2019-03-15T17:58:13.157Z,24.87
2019-03-15T18:00:48.525Z,20.62
2019-03-15T18:03:21.168Z,25.00
2019-03-15T18:05:47.635Z,27.45
2019-03-15T18:08:16.055Z,26.45
2019-03-15T18:10:44.811Z,26.52
2019-03-15T18:13:13.255Z,29.60
2019-03-15T18:15:41.729Z,25.15
2019-03-15T18:18:10.195Z,23.10
2019-03-15T18:20:38.801Z,20.35
2019-03-15T18:23:07.228Z,24.80
2019-03-15T18:25:35.915Z,25.20
2019-03-15T18:28:04.359Z,31.37
2019-03-15T18:30:35.087Z,42.73
2019-03-15T18:33:05.252Z,33.00
2019-03-15T18:35:35.681Z,29.70
2019-03-15T18:38:04.746Z,34.08
2019-03-15T18:40:34.194Z,26.40
2019-03-15T18:43:02.719Z,27.07
2019-03-15T18:45:31.227Z,27.37
2019-03-15T18:47:59.901Z,33.63
2019-03-15T18:50:28.796Z,31.68
2019-03-15T18:52:57.223Z,27.77
2019-03-15T18:55:25.993Z,31.17
2019-03-15T18:57:54.473Z,28.15
2019-03-15T19:00:24.595Z,25.60
2019-03-15T19:02:53.280Z,28.77
2019-03-15T19:05:22.035Z,24.00
2019-03-15T19:07:50.642Z,34.90
2019-03-15T19:10:19.543Z,25.95
2019-03-15T19:12:48.136Z,29.42
2019-03-15T19:15:18.780Z,22.48
2019-03-15T19:17:47.262Z,28.00
2019-03-15T19:20:16.634Z,26.33
2019-03-15T19:22:45.167Z,28.35
2019-03-15T19:25:14.673Z,29.60
2019-03-15T19:27:43.121Z,31.55
2019-03-15T19:30:15.897Z,25.15
2019-03-15T19:32:45.180Z,29.90
2019-03-15T19:35:13.653Z,30.80
2019-03-15T19:37:42.325Z,28.30
2019-03-15T19:40:18.885Z,28.42
2019-03-15T19:42:47.406Z,27.02
2019-03-15T19:45:16.831Z,36.08
2019-03-15T19:47:45.289Z,29.85
2019-03-15T19:50:16.202Z,32.58
2019-03-15T19:52:44.629Z,25.45
2019-03-15T19:55:14.715Z,24.60
2019-03-15T19:57:43.169Z,28.50
2019-03-15T20:00:18.993Z,36.38
2019-03-15T20:02:47.626Z,32.10
2019-03-15T20:05:16.231Z,29.87
2019-03-15T20:07:44.914Z,32.35
2019-03-15T20:10:16.767Z,36.23
2019-03-15T20:12:45.035Z,39.75
2019-03-15T20:15:17.305Z,33.13
2019-03-15T20:17:46.170Z,35.98
2019-03-15T20:20:15.990Z,25.27
2019-03-15T20:22:49.336Z,31.77
2019-03-15T20:25:18.735Z,28.55
2019-03-15T20:27:47.395Z,28.32
2019-03-15T20:30:21.947Z,32.40
2019-03-15T20:32:50.398Z,33.90
2019-03-15T20:35:18.876Z,31.52
2019-03-15T20:37:47.339Z,42.08
2019-03-15T20:40:15.861Z,31.27
2019-03-15T20:42:44.332Z,39.10
2019-03-15T20:45:15.529Z,36.35
2019-03-15T20:47:45.046Z,27.70
2019-03-15T20:50:14.205Z,40.60
2019-03-15T20:52:42.681Z,25.25
2019-03-15T20:55:11.117Z,32.42
2019-03-15T20:57:40.274Z,33.38
2019-03-15T21:00:13.846Z,31.25
2019-03-15T21:02:42.768Z,31.17
2019-03-15T21:05:11.401Z,32.45
2019-03-15T21:07:43.161Z,30.72
2019-03-15T21:10:16.083Z,31.42
2019-03-15T21:12:44.613Z,26.30
2019-03-15T21:15:14.953Z,41.15
2019-03-15T21:17:43.762Z,30.80
2019-03-15T21:20:17.080Z,38.10
2019-03-15T21:22:45.578Z,32.23
2019-03-15T21:25:14.016Z,31.77
2019-03-15T21:27:52.895Z,36.93
2019-03-15T21:30:18.791Z,32.95
2019-03-15T21:32:47.268Z,34.88
2019-03-15T21:35:15.672Z,33.78
2019-03-15T21:37:44.973Z,29.05
2019-03-15T21:40:15.633Z,34.23
2019-03-15T21:42:44.060Z,35.08
2019-03-15T21:45:13.150Z,36.90
2019-03-15T21:47:41.653Z,33.00
2019-03-15T21:50:17.274Z,31.20
2019-03-15T21:52:45.908Z,31.70
2019-03-15T21:55:14.596Z,29.32
2019-03-15T21:57:43.057Z,34.40
2019-03-15T22:00:18.377Z,54.83
2019-03-15T22:02:46.812Z,31.25
2019-03-15T22:05:15.326Z,34.80
2019-03-15T22:07:44.257Z,34.70
2019-03-15T22:10:16.262Z,40.23
2019-03-15T22:12:44.762Z,41.30
2019-03-15T22:15:14.937Z,30.45
2019-03-15T22:17:43.635Z,29.63
2019-03-15T22:20:16.219Z,35.78
2019-03-15T22:22:44.638Z,33.70
2019-03-15T22:25:13.628Z,35.15
2019-03-15T22:27:42.047Z,29.27
2019-03-15T22:30:14.963Z,32.28
2019-03-15T22:32:43.747Z,35.90
2019-03-15T22:35:12.869Z,35.50
2019-03-15T22:37:41.363Z,36.45
2019-03-15T22:40:14.056Z,40.80
2019-03-15T22:42:42.792Z,35.80
2019-03-15T22:45:12.521Z,32.53
2019-03-15T22:47:41.015Z,30.35
2019-03-15T22:50:10.886Z,48.48
2019-03-15T22:52:39.428Z,40.17
2019-03-15T22:55:09.765Z,32.53
2019-03-15T22:57:38.208Z,35.45
2019-03-15T23:00:13.410Z,41.53
2019-03-15T23:02:41.922Z,42.05
2019-03-15T23:05:10.790Z,27.20
2019-03-15T23:07:39.236Z,39.53
2019-03-15T23:10:09.983Z,38.10
2019-03-15T23:12:38.680Z,37.30
2019-03-15T23:15:09.108Z,30.37
2019-03-15T23:17:37.644Z,39.42
2019-03-15T23:20:08.515Z,28.73
2019-03-15T23:22:37.234Z,40.70
2019-03-15T23:25:06.744Z,40.12
2019-03-15T23:27:35.188Z,39.58
2019-03-15T23:30:05.499Z,37.63
2019-03-15T23:32:33.964Z,34.63
2019-03-15T23:35:02.397Z,32.67
2019-03-15T23:37:31.359Z,34.20
2019-03-15T23:39:59.790Z,29.35
2019-03-15T23:42:28.263Z,36.50
2019-03-15T23:44:56.760Z,33.60
2019-03-15T23:47:25.180Z,35.75
2019-03-15T23:49:53.706Z,36.60
2019-03-15T23:52:22.173Z,36.53
2019-03-15T23:54:50.628Z,33.85
2019-03-15T23:57:19.065Z,30.40
2019-03-15T23:59:47.566Z,38.17
